Happy Avocet — OXMY2 — position and weather

sailwx.info

Track history (hours):
 
Tides and Currents Weather Stations Pressure Air Temp Water Temp Dewpoint Dewpoint Depression Visibility Wind Speed Wind Dir Waves Ship Positions

Happy Avocet

Last reported at 2018-Jun-15 12:40 UTC. Time now 2018-Jun-20 12:46 UTC.
Position N 29°44' W 095°12'.

Length 146 m; draft 6.6 m.

Type: Tanker. MMSI: 219830000.

Date/timePositionNaut miles runAvg speedWind from/ knotsBaromVisibWave heightAir tempDewpointWater temp
2018-Jun-15 12:40N 29°44' W 095°12'3 4.9
2018-Jun-15 12:07N 29°44' W 095°09'2 6.5
2018-Jun-15 11:49N 29°44' W 095°07'2 5.1
2018-Jun-15 11:20N 29°45' W 095°04'3 7.9
2018-Jun-15 10:59N 29°44' W 095°01'4 8.5
2018-Jun-15 10:29N 29°40' W 094°59'612.3
2018-Jun-15 10:00N 29°35' W 094°56'612.7
2018-Jun-15 09:30N 29°30' W 094°52'713.3
2018-Jun-15 09:00N 29°23' W 094°49'612.4
2018-Jun-15 08:31N 29°21' W 094°42'713.2
2018-Jun-15 08:00N 29°18' W 094°36'1 2.6
2018-Jun-15 07:26N 29°18' W 094°34'0 0.0
2018-Jun-15 05:14N 29°18' W 094°34'0 0.0
2018-Jun-15 04:56N 29°18' W 094°34'0 0.0
2018-Jun-15 04:14N 29°18' W 094°34'0 0.0
2018-Jun-15 03:56N 29°18' W 094°34'0 0.0
2018-Jun-15 03:29N 29°18' W 094°34'0 0.0
2018-Jun-15 01:41N 29°18' W 094°34'0 0.0
2018-Jun-14 17:56N 29°18' W 094°34'0 0.0
2018-Jun-14 17:26N 29°18' W 094°34'0 0.0
2018-Jun-14 09:02N 29°18' W 094°34'0 0.0
2018-Jun-14 08:50N 29°18' W 094°34'0 0.0
2018-Jun-14 07:59N 29°18' W 094°34'0 0.0
2018-Jun-14 06:50N 29°18' W 094°34'0 0.0
2018-Jun-14 06:29N 29°18' W 094°34'0 0.0
2018-Jun-14 03:14N 29°18' W 094°34'0 0.0
2018-Jun-14 01:44N 29°18' W 094°34'0 0.0
2018-Jun-14 01:08N 29°18' W 094°34'0 0.1
2018-Jun-14 00:59N 29°18' W 094°34'0 0.0
2018-Jun-14 00:23N 29°18' W 094°34'0 0.0
2018-Jun-13 23:59N 29°18' W 094°34'0 0.1
2018-Jun-13 23:30N 29°18' W 094°34'1 1.3
2018-Jun-13 22:58N 29°17' W 094°34'3 5.9
2018-Jun-13 22:30N 29°15' W 094°32'4 6.9
2018-Jun-13 21:59N 29°13' W 094°28'1 3.0
2018-Jun-13 21:30N 29°12' W 094°27'  
2018-Jun-10 15:55N 25°46' W 079°29'512.8
2018-Jun-10 15:31N 25°51' W 079°27'  
Track history (hours):
 
Tides and Currents Weather Stations Pressure Air Temp Water Temp Dewpoint Dewpoint Depression Visibility Wind Speed Wind Dir Waves Ship Positions

Happy Avocet

Last reported at 2018-Jun-15 12:40 UTC. Time now 2018-Jun-20 12:46 UTC.
Position N 29°44' W 095°12'.

Length 146 m; draft 6.6 m.

Type: Tanker. MMSI: 219830000.

Date/timePositionNaut miles runAvg speedWind from/ knotsBaromVisibWave heightAir tempDewpointWater temp
2018-Jun-15 12:40N 29°44' W 095°12'3 4.9
2018-Jun-15 12:07N 29°44' W 095°09'2 6.5
2018-Jun-15 11:49N 29°44' W 095°07'2 5.1
2018-Jun-15 11:20N 29°45' W 095°04'3 7.9
2018-Jun-15 10:59N 29°44' W 095°01'4 8.5
2018-Jun-15 10:29N 29°40' W 094°59'612.3
2018-Jun-15 10:00N 29°35' W 094°56'612.7
2018-Jun-15 09:30N 29°30' W 094°52'713.3
2018-Jun-15 09:00N 29°23' W 094°49'612.4
2018-Jun-15 08:31N 29°21' W 094°42'713.2
2018-Jun-15 08:00N 29°18' W 094°36'1 2.6
2018-Jun-15 07:26N 29°18' W 094°34'0 0.0
2018-Jun-15 05:14N 29°18' W 094°34'0 0.0
2018-Jun-15 04:56N 29°18' W 094°34'0 0.0
2018-Jun-15 04:14N 29°18' W 094°34'0 0.0
2018-Jun-15 03:56N 29°18' W 094°34'0 0.0
2018-Jun-15 03:29N 29°18' W 094°34'0 0.0
2018-Jun-15 01:41N 29°18' W 094°34'0 0.0
2018-Jun-14 17:56N 29°18' W 094°34'0 0.0
2018-Jun-14 17:26N 29°18' W 094°34'0 0.0
2018-Jun-14 09:02N 29°18' W 094°34'0 0.0
2018-Jun-14 08:50N 29°18' W 094°34'0 0.0
2018-Jun-14 07:59N 29°18' W 094°34'0 0.0
2018-Jun-14 06:50N 29°18' W 094°34'0 0.0
2018-Jun-14 06:29N 29°18' W 094°34'0 0.0
2018-Jun-14 03:14N 29°18' W 094°34'0 0.0
2018-Jun-14 01:44N 29°18' W 094°34'0 0.0
2018-Jun-14 01:08N 29°18' W 094°34'0 0.1
2018-Jun-14 00:59N 29°18' W 094°34'0 0.0
2018-Jun-14 00:23N 29°18' W 094°34'0 0.0
2018-Jun-13 23:59N 29°18' W 094°34'0 0.1
2018-Jun-13 23:30N 29°18' W 094°34'1 1.3
2018-Jun-13 22:58N 29°17' W 094°34'3 5.9
2018-Jun-13 22:30N 29°15' W 094°32'4 6.9
2018-Jun-13 21:59N 29°13' W 094°28'1 3.0
2018-Jun-13 21:30N 29°12' W 094°27'  
2018-Jun-10 15:55N 25°46' W 079°29'512.8
2018-Jun-10 15:31N 25°51' W 079°27'  

Dump ship's entire track history